Dong Fang You 2 — BXEC — position and weather

sailwx.info

Track history (hours):
 
Tides and Currents Weather Stations Pressure Air Temp Water Temp Dewpoint Dewpoint Depression Visibility Wind Speed Wind Dir Waves Ship Positions

Dong Fang You 2

Last reported at 2016-Feb-03 03:11 UTC. Time now 2016-Feb-13 23:45 UTC.
Position N 22°05' E 113°44'.
Warning: this ship's position is 10 days out of date.

Length 82 m; draft 4.2 m.

Type: Cargo ship. MMSI: 412464680.

Date/timePositionNaut miles runAvg speedWind from/ knotsBaromVisibWave heightAir tempDewpointWater temp
2016-Feb-03 03:11N 22°05' E 113°44'47 9.7
2016-Feb-02 22:20N 22°51' E 113°34'41 2.1
2016-Feb-02 02:33N 22°12' E 113°46'39 7.7
2016-Feb-01 21:31N 21°50' E 113°12'  
2016-Jan-28 00:13N 21°52' E 113°13'2 0.2
2016-Jan-27 15:32N 21°54' E 113°14'0 0.0
2016-Jan-27 13:32N 21°54' E 113°14'0 0.0
2016-Jan-27 11:32N 21°54' E 113°14'0 0.0
2016-Jan-27 10:32N 21°54' E 113°14'0 0.0
2016-Jan-27 09:26N 21°54' E 113°14'0 0.0
2016-Jan-27 08:32N 21°54' E 113°14'0 0.0
2016-Jan-27 07:26N 21°54' E 113°14'0 0.0
2016-Jan-27 05:32N 21°54' E 113°14'0 0.0
2016-Jan-27 04:26N 21°54' E 113°14'0 0.0
2016-Jan-27 03:26N 21°54' E 113°14'2 2.7
2016-Jan-27 02:32N 21°53' E 113°11'0 0.0
2016-Jan-27 01:08N 21°53' E 113°11'0 0.0
2016-Jan-27 00:32N 21°53' E 113°11'0 0.0
2016-Jan-26 23:32N 21°53' E 113°11'0 0.1
2016-Jan-26 22:32N 21°53' E 113°11'0 0.0
2016-Jan-26 21:32N 21°53' E 113°11'0 0.0
2016-Jan-26 20:32N 21°53' E 113°11'0 0.0
2016-Jan-26 19:32N 21°53' E 113°11'0 0.0
2016-Jan-26 18:32N 21°53' E 113°11'0 0.0
2016-Jan-26 17:26N 21°53' E 113°11'0 0.0
2016-Jan-26 16:14N 21°53' E 113°11'0 0.0
2016-Jan-26 15:26N 21°53' E 113°11'0 0.0
2016-Jan-26 14:32N 21°53' E 113°11'0 0.0
2016-Jan-26 13:32N 21°53' E 113°11'0 0.1
2016-Jan-26 12:32N 21°53' E 113°11'0 0.0
2016-Jan-26 11:26N 21°53' E 113°11'0 0.1
2016-Jan-26 10:32N 21°53' E 113°11'0 0.0
2016-Jan-26 09:26N 21°53' E 113°11'0 0.0
2016-Jan-26 08:32N 21°53' E 113°11'  
Track history (hours):
 
Tides and Currents Weather Stations Pressure Air Temp Water Temp Dewpoint Dewpoint Depression Visibility Wind Speed Wind Dir Waves Ship Positions

Dong Fang You 2

Last reported at 2016-Feb-03 03:11 UTC. Time now 2016-Feb-13 23:45 UTC.
Position N 22°05' E 113°44'.
Warning: this ship's position is 10 days out of date.

Length 82 m; draft 4.2 m.

Type: Cargo ship. MMSI: 412464680.

Date/timePositionNaut miles runAvg speedWind from/ knotsBaromVisibWave heightAir tempDewpointWater temp
2016-Feb-03 03:11N 22°05' E 113°44'47 9.7
2016-Feb-02 22:20N 22°51' E 113°34'41 2.1
2016-Feb-02 02:33N 22°12' E 113°46'39 7.7
2016-Feb-01 21:31N 21°50' E 113°12'  
2016-Jan-28 00:13N 21°52' E 113°13'2 0.2
2016-Jan-27 15:32N 21°54' E 113°14'0 0.0
2016-Jan-27 13:32N 21°54' E 113°14'0 0.0
2016-Jan-27 11:32N 21°54' E 113°14'0 0.0
2016-Jan-27 10:32N 21°54' E 113°14'0 0.0
2016-Jan-27 09:26N 21°54' E 113°14'0 0.0
2016-Jan-27 08:32N 21°54' E 113°14'0 0.0
2016-Jan-27 07:26N 21°54' E 113°14'0 0.0
2016-Jan-27 05:32N 21°54' E 113°14'0 0.0
2016-Jan-27 04:26N 21°54' E 113°14'0 0.0
2016-Jan-27 03:26N 21°54' E 113°14'2 2.7
2016-Jan-27 02:32N 21°53' E 113°11'0 0.0
2016-Jan-27 01:08N 21°53' E 113°11'0 0.0
2016-Jan-27 00:32N 21°53' E 113°11'0 0.0
2016-Jan-26 23:32N 21°53' E 113°11'0 0.1
2016-Jan-26 22:32N 21°53' E 113°11'0 0.0
2016-Jan-26 21:32N 21°53' E 113°11'0 0.0
2016-Jan-26 20:32N 21°53' E 113°11'0 0.0
2016-Jan-26 19:32N 21°53' E 113°11'0 0.0
2016-Jan-26 18:32N 21°53' E 113°11'0 0.0
2016-Jan-26 17:26N 21°53' E 113°11'0 0.0
2016-Jan-26 16:14N 21°53' E 113°11'0 0.0
2016-Jan-26 15:26N 21°53' E 113°11'0 0.0
2016-Jan-26 14:32N 21°53' E 113°11'0 0.0
2016-Jan-26 13:32N 21°53' E 113°11'0 0.1
2016-Jan-26 12:32N 21°53' E 113°11'0 0.0
2016-Jan-26 11:26N 21°53' E 113°11'0 0.1
2016-Jan-26 10:32N 21°53' E 113°11'0 0.0
2016-Jan-26 09:26N 21°53' E 113°11'0 0.0
2016-Jan-26 08:32N 21°53' E 113°11'  

Dump ship's entire track history